createdAt,value
2023-02-07T00:00:39.444Z,43.78
2023-02-07T00:03:41.884Z,43.51
2023-02-07T00:06:44.112Z,43.18
2023-02-07T00:09:46.239Z,43.62
2023-02-07T00:12:49.970Z,43.88
2023-02-07T00:15:52.097Z,44.03
2023-02-07T00:18:55.050Z,44.20
2023-02-07T00:21:57.156Z,44.50
2023-02-07T00:24:59.303Z,44.01
2023-02-07T00:28:01.545Z,44.51
2023-02-07T00:31:08.973Z,44.33
2023-02-07T00:34:11.798Z,44.99
2023-02-07T00:37:14.001Z,44.83
2023-02-07T00:40:18.591Z,44.56
2023-02-07T00:43:29.373Z,43.66
2023-02-07T00:46:33.080Z,43.55
2023-02-07T00:49:35.319Z,44.30
2023-02-07T00:52:37.602Z,44.63
2023-02-07T00:55:39.934Z,45.07
2023-02-07T00:58:42.134Z,45.31
2023-02-07T01:01:44.388Z,44.74
2023-02-07T01:04:46.541Z,44.45
2023-02-07T01:07:48.715Z,44.07
2023-02-07T01:10:50.867Z,44.79
2023-02-07T01:13:53.154Z,44.51
2023-02-07T01:16:57.595Z,44.31
2023-02-07T01:20:00.013Z,44.30
2023-02-07T01:23:02.406Z,44.59
2023-02-07T01:26:05.714Z,44.95
2023-02-07T01:29:08.554Z,44.77
2023-02-07T01:32:10.801Z,44.91
2023-02-07T01:35:12.959Z,44.67
2023-02-07T01:38:15.923Z,44.61
2023-02-07T01:41:18.586Z,44.93
2023-02-07T01:44:23.764Z,44.69
2023-02-07T01:47:26.551Z,44.81
2023-02-07T01:50:29.320Z,44.91
2023-02-07T01:53:33.138Z,44.71
2023-02-07T01:56:36.169Z,44.08
2023-02-07T01:59:40.882Z,44.15
2023-02-07T02:02:43.593Z,44.48
2023-02-07T02:05:50.184Z,44.60
2023-02-07T02:08:58.035Z,44.59
2023-02-07T02:12:18.469Z,44.87
2023-02-07T02:15:48.599Z,45.39
2023-02-07T02:18:59.630Z,45.64
2023-02-07T02:22:32.734Z,45.68
2023-02-07T02:25:53.688Z,45.41
2023-02-07T02:29:53.495Z,46.11
2023-02-07T02:33:02.275Z,45.35
2023-02-07T02:36:23.257Z,45.20
2023-02-07T02:40:12.875Z,45.87
2023-02-07T02:43:25.204Z,46.00
2023-02-07T02:46:34.983Z,45.60
2023-02-07T02:49:37.871Z,46.52
2023-02-07T02:52:50.345Z,45.09
2023-02-07T02:56:29.825Z,46.38
2023-02-07T02:59:41.913Z,46.45
2023-02-07T03:02:57.729Z,46.75
2023-02-07T03:06:18.833Z,46.11
2023-02-07T03:09:27.006Z,46.34
2023-02-07T03:12:52.471Z,46.48
2023-02-07T03:16:23.643Z,46.66
2023-02-07T03:19:33.407Z,45.88
2023-02-07T03:22:36.054Z,45.45
2023-02-07T03:25:39.311Z,45.56
2023-02-07T03:28:43.931Z,45.92
2023-02-07T03:31:49.048Z,45.75
2023-02-07T03:34:54.427Z,45.54
2023-02-07T03:38:03.495Z,46.12
2023-02-07T03:41:12.008Z,46.15
2023-02-07T03:44:15.282Z,46.24
2023-02-07T03:47:18.819Z,45.74
2023-02-07T03:50:21.119Z,45.71
2023-02-07T03:53:23.307Z,46.08
2023-02-07T03:56:25.438Z,46.45
2023-02-07T03:59:27.943Z,46.39
2023-02-07T04:02:30.586Z,45.75
2023-02-07T04:05:32.718Z,46.21
2023-02-07T04:08:35.122Z,46.22
2023-02-07T04:11:37.252Z,45.47
2023-02-07T04:14:39.386Z,45.24
2023-02-07T04:17:41.729Z,45.85
2023-02-07T04:20:44.019Z,46.47
2023-02-07T04:23:46.164Z,45.73
2023-02-07T04:26:48.935Z,45.63
2023-02-07T04:29:51.262Z,45.50
2023-02-07T04:32:55.846Z,44.88
2023-02-07T04:35:59.935Z,45.17
2023-02-07T04:39:02.541Z,45.14
2023-02-07T04:42:04.909Z,45.38
2023-02-07T04:45:07.335Z,45.85
2023-02-07T04:48:09.491Z,46.73
2023-02-07T04:51:12.153Z,46.63
2023-02-07T04:54:14.330Z,46.28
2023-02-07T04:57:16.763Z,45.78
2023-02-07T05:00:19.528Z,46.08
2023-02-07T05:03:21.698Z,46.13
2023-02-07T05:06:23.815Z,46.58
2023-02-07T05:09:26.003Z,46.60
2023-02-07T05:12:28.213Z,46.51
2023-02-07T05:15:30.799Z,46.57
2023-02-07T05:18:32.982Z,46.43
2023-02-07T05:21:35.730Z,46.02
2023-02-07T05:24:38.794Z,46.28
2023-02-07T05:27:41.187Z,46.16
2023-02-07T05:30:43.413Z,46.36
2023-02-07T05:33:45.744Z,46.46
2023-02-07T05:36:47.895Z,46.10
2023-02-07T05:39:50.055Z,45.47
2023-02-07T05:42:52.442Z,46.07
2023-02-07T05:45:54.779Z,46.46
2023-02-07T05:48:56.957Z,46.33
2023-02-07T05:51:59.157Z,46.39
2023-02-07T05:55:01.427Z,46.26
2023-02-07T05:58:03.779Z,46.27
2023-02-07T06:01:05.948Z,46.43
2023-02-07T06:04:08.167Z,45.65
2023-02-07T06:07:10.334Z,46.23
2023-02-07T06:10:13.276Z,45.80
2023-02-07T06:13:15.596Z,46.12
2023-02-07T06:16:17.814Z,45.62
2023-02-07T06:19:20.084Z,45.36
2023-02-07T06:22:22.608Z,45.69
2023-02-07T06:25:27.748Z,46.03
2023-02-07T06:28:29.980Z,46.54
2023-02-07T06:31:32.234Z,46.17
2023-02-07T06:34:34.540Z,46.44
2023-02-07T06:37:37.119Z,46.14
2023-02-07T06:40:44.621Z,45.95
2023-02-07T06:43:49.574Z,45.32
2023-02-07T06:46:51.915Z,45.26
2023-02-07T06:49:54.657Z,45.31
2023-02-07T06:53:01.897Z,45.83
2023-02-07T06:56:04.372Z,46.07
2023-02-07T06:59:06.709Z,46.52
2023-02-07T07:02:11.124Z,46.26
2023-02-07T07:05:15.468Z,46.51
2023-02-07T07:08:19.110Z,46.29
2023-02-07T07:11:22.421Z,46.49
2023-02-07T07:14:24.630Z,46.40
2023-02-07T07:17:31.735Z,46.16
2023-02-07T07:20:34.118Z,46.05
2023-02-07T07:23:36.727Z,46.48
2023-02-07T07:26:49.431Z,45.92
2023-02-07T07:29:52.766Z,45.74
2023-02-07T07:32:55.614Z,45.73
2023-02-07T07:35:59.432Z,45.34
2023-02-07T07:39:01.700Z,45.36
2023-02-07T07:42:05.593Z,45.28
2023-02-07T07:45:31.106Z,45.48
2023-02-07T07:48:36.036Z,45.15
2023-02-07T07:51:38.312Z,44.33
2023-02-07T07:54:40.529Z,44.53
2023-02-07T07:57:42.733Z,44.95
2023-02-07T08:00:45.192Z,43.99
2023-02-07T08:03:54.911Z,44.22
2023-02-07T08:06:57.890Z,43.95
2023-02-07T08:10:00.315Z,43.81
2023-02-07T08:13:03.004Z,43.30
2023-02-07T08:16:10.967Z,43.85
2023-02-07T08:19:13.224Z,44.00
2023-02-07T08:22:15.848Z,43.78
2023-02-07T08:25:22.684Z,44.52
2023-02-07T08:28:26.273Z,43.32
2023-02-07T08:31:28.607Z,44.04
2023-02-07T08:34:37.131Z,44.24
2023-02-07T08:37:39.440Z,43.53
2023-02-07T08:40:42.043Z,43.98
2023-02-07T08:43:46.809Z,43.39
2023-02-07T08:46:49.212Z,43.12
2023-02-07T08:49:51.849Z,43.03
2023-02-07T08:52:58.074Z,42.89
2023-02-07T08:56:04.156Z,42.74
2023-02-07T08:59:09.262Z,41.82
2023-02-07T09:02:12.498Z,41.44
2023-02-07T09:05:25.363Z,41.28
2023-02-07T09:08:27.688Z,40.68
2023-02-07T09:11:33.288Z,40.07
2023-02-07T09:14:35.829Z,41.39
2023-02-07T09:17:58.281Z,40.40
2023-02-07T09:21:02.525Z,40.66
2023-02-07T09:24:04.870Z,41.39
2023-02-07T09:27:08.566Z,40.05
2023-02-07T09:30:12.175Z,40.27
2023-02-07T09:33:15.264Z,38.86
2023-02-07T09:36:21.586Z,40.61
2023-02-07T09:39:24.730Z,40.32
2023-02-07T09:42:33.935Z,39.81
2023-02-07T09:45:41.234Z,39.70
2023-02-07T09:48:51.432Z,39.45
2023-02-07T09:51:57.254Z,38.56
2023-02-07T09:55:05.542Z,38.56
2023-02-07T09:58:41.252Z,38.45
2023-02-07T10:01:51.685Z,36.68
2023-02-07T10:04:59.240Z,37.63
2023-02-07T10:08:01.434Z,37.69
2023-02-07T10:11:19.425Z,36.86
2023-02-07T10:14:53.870Z,36.34
2023-02-07T10:18:34.398Z,37.09
2023-02-07T10:21:58.118Z,37.03
2023-02-07T10:25:16.971Z,36.73
2023-02-07T10:28:51.656Z,36.82
2023-02-07T10:31:55.086Z,36.63
2023-02-07T10:35:04.653Z,36.07
2023-02-07T10:38:22.954Z,35.14
2023-02-07T10:41:40.197Z,35.94
2023-02-07T10:44:43.027Z,34.97
2023-02-07T10:47:45.951Z,34.16
2023-02-07T10:50:48.988Z,34.47
2023-02-07T10:54:07.588Z,34.75
2023-02-07T10:57:17.158Z,34.47
2023-02-07T11:08:14.734Z,31.79
2023-02-07T11:11:40.610Z,33.09
2023-02-07T11:15:01.378Z,32.36
2023-02-07T11:18:04.199Z,32.72
2023-02-07T11:21:08.477Z,32.17
2023-02-07T11:24:31.262Z,32.31
2023-02-07T11:27:38.631Z,30.81
2023-02-07T11:30:40.866Z,31.00
2023-02-07T11:33:43.340Z,31.22
2023-02-07T11:36:48.305Z,31.33
2023-02-07T11:39:54.285Z,30.39
2023-02-07T11:43:22.155Z,30.00
2023-02-07T11:46:31.677Z,29.79
2023-02-07T11:49:38.159Z,29.93
2023-02-07T11:52:44.304Z,29.50
2023-02-07T11:55:46.585Z,29.83
2023-02-07T11:58:53.768Z,28.54
2023-02-07T12:01:58.572Z,29.66
2023-02-07T12:05:28.241Z,29.77
2023-02-07T12:08:38.289Z,28.39
2023-02-07T12:11:41.224Z,28.89
2023-02-07T12:14:56.205Z,28.87
2023-02-07T12:18:03.418Z,28.53
2023-02-07T12:21:25.278Z,27.41
2023-02-07T12:24:42.644Z,28.12
2023-02-07T12:27:46.315Z,27.92
2023-02-07T12:30:54.167Z,28.06
2023-02-07T12:34:21.135Z,27.04
2023-02-07T12:37:31.015Z,27.13
2023-02-07T12:40:40.506Z,27.28
2023-02-07T12:43:51.213Z,27.44
2023-02-07T12:47:15.368Z,26.86
2023-02-07T12:50:29.770Z,27.00
2023-02-07T12:54:09.731Z,26.76
2023-02-07T12:57:39.629Z,25.95
2023-02-07T13:01:02.438Z,26.27
2023-02-07T13:04:38.697Z,26.70
2023-02-07T13:07:49.816Z,26.30
2023-02-07T13:11:01.028Z,25.91
2023-02-07T13:14:12.546Z,26.39
2023-02-07T13:17:38.747Z,26.41
2023-02-07T13:20:50.124Z,26.45
2023-02-07T13:24:00.589Z,25.80
2023-02-07T13:27:06.475Z,25.96
2023-02-07T13:30:17.048Z,26.11
2023-02-07T13:33:25.134Z,25.64
2023-02-07T13:36:43.895Z,25.55
2023-02-07T13:40:02.482Z,25.42
2023-02-07T13:43:13.750Z,26.03
2023-02-07T13:46:46.489Z,25.78
2023-02-07T13:50:24.043Z,25.59
2023-02-07T13:54:02.373Z,26.16
2023-02-07T13:57:23.048Z,26.14
2023-02-07T14:04:08.385Z,25.96
2023-02-07T14:07:21.239Z,25.94
2023-02-07T14:10:40.872Z,25.83
2023-02-07T14:13:44.466Z,25.64
2023-02-07T14:16:54.157Z,25.28
2023-02-07T14:20:01.050Z,25.67
2023-02-07T14:23:11.104Z,26.01
2023-02-07T14:26:38.220Z,25.58
2023-02-07T14:29:41.594Z,25.59
2023-02-07T14:32:45.319Z,25.54
2023-02-07T14:36:04.850Z,25.39
2023-02-07T14:39:27.932Z,26.06
2023-02-07T14:42:30.191Z,25.59
2023-02-07T14:45:35.779Z,26.11
2023-02-07T14:49:07.383Z,26.05
2023-02-07T14:52:15.858Z,26.22
2023-02-07T14:55:22.252Z,25.57
2023-02-07T14:58:38.360Z,25.55
2023-02-07T15:01:40.578Z,25.94
2023-02-07T15:04:43.738Z,26.28
2023-02-07T15:07:47.235Z,26.04
2023-02-07T15:11:04.871Z,25.88
2023-02-07T15:14:07.189Z,26.66
2023-02-07T15:17:10.890Z,26.31
2023-02-07T15:20:19.523Z,26.80
2023-02-07T15:23:23.220Z,26.32
2023-02-07T15:26:25.500Z,27.11
2023-02-07T15:29:39.052Z,26.94
2023-02-07T15:32:52.630Z,27.59
2023-02-07T15:35:54.861Z,27.96
2023-02-07T15:38:58.356Z,28.58
2023-02-07T15:42:00.605Z,28.63
2023-02-07T15:45:04.067Z,30.09
2023-02-07T15:48:15.670Z,30.23
2023-02-07T15:51:30.496Z,30.91
2023-02-07T15:54:37.417Z,31.18
2023-02-07T15:57:43.027Z,31.42
2023-02-07T16:00:45.240Z,31.73
2023-02-07T16:03:47.774Z,31.83
2023-02-07T16:07:12.242Z,32.38
2023-02-07T16:10:34.713Z,32.51
2023-02-07T16:13:44.841Z,32.57
2023-02-07T16:16:55.335Z,33.07
2023-02-07T16:19:57.483Z,33.27
2023-02-07T16:23:04.576Z,33.33
2023-02-07T16:26:06.846Z,33.73
2023-02-07T16:29:13.875Z,33.83
2023-02-07T16:32:16.981Z,34.20
2023-02-07T16:35:25.428Z,33.93
2023-02-07T16:38:27.589Z,34.33
2023-02-07T16:41:32.352Z,34.16
2023-02-07T16:44:35.984Z,34.57
2023-02-07T16:47:38.144Z,34.56
2023-02-07T16:50:40.633Z,34.33
2023-02-07T16:53:43.115Z,34.45
2023-02-07T16:56:47.193Z,34.54
2023-02-07T16:59:49.342Z,34.84
2023-02-07T17:02:52.755Z,35.59
2023-02-07T17:05:54.931Z,35.02
2023-02-07T17:08:57.081Z,35.43
2023-02-07T17:11:59.269Z,35.79
2023-02-07T17:15:02.393Z,35.37
2023-02-07T17:18:04.664Z,35.54
2023-02-07T17:21:08.940Z,36.06
2023-02-07T17:24:11.198Z,35.87
2023-02-07T17:27:14.716Z,36.01
2023-02-07T17:30:38.481Z,36.09
2023-02-07T17:33:41.021Z,35.83
2023-02-07T17:36:48.478Z,36.39
2023-02-07T17:39:52.603Z,36.44
2023-02-07T17:42:54.796Z,36.67
2023-02-07T17:45:57.123Z,36.57
2023-02-07T17:48:59.712Z,36.32
2023-02-07T17:52:02.749Z,36.77
2023-02-07T17:55:05.295Z,37.09
2023-02-07T17:58:07.584Z,37.00
2023-02-07T18:01:09.817Z,37.29
2023-02-07T18:04:12.113Z,37.31
2023-02-07T18:07:14.641Z,37.50
2023-02-07T18:10:28.394Z,37.98
2023-02-07T18:13:30.640Z,37.92
2023-02-07T18:16:32.865Z,38.66
2023-02-07T18:19:35.082Z,38.94
2023-02-07T18:22:37.560Z,38.98
2023-02-07T18:25:39.962Z,39.04
2023-02-07T18:28:43.431Z,39.40
2023-02-07T18:31:46.420Z,39.51
2023-02-07T18:34:49.135Z,39.80
2023-02-07T18:37:51.633Z,39.59
2023-02-07T18:40:53.948Z,39.51
2023-02-07T18:43:56.357Z,39.66
2023-02-07T18:46:58.633Z,39.53
2023-02-07T18:50:03.452Z,40.03
2023-02-07T18:53:05.755Z,39.98
2023-02-07T18:56:11.232Z,40.00
2023-02-07T18:59:17.250Z,39.94
2023-02-07T19:02:19.661Z,40.60
2023-02-07T19:05:22.091Z,40.58
2023-02-07T19:08:24.302Z,40.26
2023-02-07T19:11:26.761Z,41.06
2023-02-07T19:14:35.476Z,40.96
2023-02-07T19:17:37.844Z,41.36
2023-02-07T19:20:40.397Z,41.09
2023-02-07T19:23:42.939Z,40.29
2023-02-07T19:26:46.869Z,40.99
2023-02-07T19:29:49.205Z,40.20
2023-02-07T19:32:52.037Z,40.40
2023-02-07T19:35:54.685Z,41.47
2023-02-07T19:38:57.230Z,40.99
2023-02-07T19:45:15.922Z,41.51
2023-02-07T19:48:18.124Z,41.76
2023-02-07T19:51:27.335Z,41.61
2023-02-07T19:54:29.772Z,41.48
2023-02-07T19:57:33.336Z,41.87
2023-02-07T20:00:35.735Z,42.35
2023-02-07T20:03:45.328Z,41.85
2023-02-07T20:06:47.510Z,42.34
2023-02-07T20:09:50.114Z,42.29
2023-02-07T20:12:52.355Z,41.91
2023-02-07T20:15:54.551Z,42.19
2023-02-07T20:18:56.982Z,42.09
2023-02-07T20:21:59.223Z,42.63
2023-02-07T20:25:01.669Z,41.77
2023-02-07T20:28:05.175Z,42.61
2023-02-07T20:31:11.789Z,42.35
2023-02-07T20:34:14.905Z,42.16
2023-02-07T20:37:17.186Z,42.46
2023-02-07T20:40:19.411Z,43.04
2023-02-07T20:43:21.550Z,42.52
2023-02-07T20:46:24.218Z,42.06
2023-02-07T20:49:28.907Z,42.05
2023-02-07T20:52:31.251Z,42.32
2023-02-07T20:55:33.491Z,42.07
2023-02-07T20:58:35.913Z,42.16
2023-02-07T21:01:39.474Z,42.99
2023-02-07T21:04:42.940Z,42.93
2023-02-07T21:07:45.154Z,42.80
2023-02-07T21:10:47.323Z,42.50
2023-02-07T21:13:53.999Z,42.43
2023-02-07T21:17:02.371Z,42.89
2023-02-07T21:20:04.963Z,43.05
2023-02-07T21:23:07.789Z,43.80
2023-02-07T21:26:11.811Z,43.66
2023-02-07T21:29:17.185Z,43.08
2023-02-07T21:32:19.700Z,44.14
2023-02-07T21:35:21.834Z,44.27
2023-02-07T21:38:24.034Z,44.29
2023-02-07T21:41:28.930Z,44.51
2023-02-07T21:44:31.122Z,44.47
2023-02-07T21:47:33.295Z,45.11
2023-02-07T21:50:35.448Z,44.98
2023-02-07T21:53:38.163Z,45.18
2023-02-07T21:56:45.387Z,44.78
2023-02-07T21:59:47.780Z,44.71
2023-02-07T22:02:50.472Z,44.91
2023-02-07T22:05:52.937Z,44.97
2023-02-07T22:08:57.404Z,44.26
2023-02-07T22:11:59.729Z,44.99
2023-02-07T22:15:01.983Z,45.40
2023-02-07T22:18:05.108Z,45.61
2023-02-07T22:21:10.660Z,45.60
2023-02-07T22:24:14.602Z,44.98
2023-02-07T22:27:16.849Z,45.54
2023-02-07T22:30:19.869Z,45.38
2023-02-07T22:33:33.783Z,45.68
2023-02-07T22:36:39.244Z,45.79
2023-02-07T22:39:52.439Z,45.96
2023-02-07T22:46:32.539Z,45.30
2023-02-07T22:53:15.948Z,44.94
2023-02-07T22:56:18.678Z,45.67
2023-02-07T22:59:20.921Z,45.72
2023-02-07T23:02:23.078Z,46.33
2023-02-07T23:05:25.253Z,46.78
2023-02-07T23:08:27.424Z,47.60
2023-02-07T23:11:31.852Z,47.59
2023-02-07T23:14:34.016Z,46.67
2023-02-07T23:17:36.164Z,47.01
2023-02-07T23:20:38.560Z,47.10
2023-02-07T23:23:41.032Z,47.55
2023-02-07T23:26:43.192Z,47.77
2023-02-07T23:29:45.308Z,47.12
2023-02-07T23:32:47.455Z,46.45
2023-02-07T23:35:49.571Z,46.54
2023-02-07T23:38:51.804Z,46.25
2023-02-07T23:45:10.083Z,46.43
2023-02-07T23:48:12.318Z,47.07
2023-02-07T23:51:15.184Z,46.33
2023-02-07T23:54:17.344Z,45.72
2023-02-07T23:57:19.479Z,45.76
